createdAt,value
2023-05-08T00:00:43.457Z,8.00
2023-05-08T00:03:11.065Z,10.30
2023-05-08T00:05:38.762Z,7.97
2023-05-08T00:08:07.787Z,7.87
2023-05-08T00:10:35.453Z,9.40
2023-05-08T00:13:03.021Z,6.97
2023-05-08T00:15:30.726Z,8.03
2023-05-08T00:18:00.006Z,8.50
2023-05-08T00:20:30.140Z,8.10
2023-05-08T00:22:58.043Z,8.52
2023-05-08T00:25:25.679Z,7.87
2023-05-08T00:27:53.413Z,10.13
2023-05-08T00:30:21.432Z,8.88
2023-05-08T00:32:49.190Z,8.40
2023-05-08T00:35:16.853Z,13.27
2023-05-08T00:37:44.528Z,11.50
2023-05-08T00:40:12.456Z,9.70
2023-05-08T00:42:40.289Z,10.57
2023-05-08T00:45:08.215Z,8.82
2023-05-08T00:47:35.873Z,8.65
2023-05-08T00:50:03.556Z,8.97
2023-05-08T00:52:31.796Z,12.90
2023-05-08T00:54:59.875Z,10.02
2023-05-08T00:57:27.564Z,10.10
2023-05-08T00:59:55.083Z,11.60
2023-05-08T01:02:22.708Z,10.60
2023-05-08T01:04:50.262Z,8.80
2023-05-08T01:07:19.137Z,10.07
2023-05-08T01:09:46.665Z,8.95
2023-05-08T01:12:37.282Z,9.32
2023-05-08T01:15:20.598Z,13.13
2023-05-08T01:18:13.774Z,10.20
2023-05-08T01:20:44.121Z,9.57
2023-05-08T01:23:16.884Z,12.10
2023-05-08T01:26:02.807Z,10.18
2023-05-08T01:28:49.000Z,9.25
2023-05-08T01:31:51.833Z,9.57
2023-05-08T01:34:22.027Z,9.40
2023-05-08T01:36:49.616Z,12.55
2023-05-08T01:39:21.334Z,14.15
2023-05-08T01:41:59.687Z,11.40
2023-05-08T01:44:29.618Z,12.68
2023-05-08T01:46:57.404Z,13.00
2023-05-08T01:49:26.231Z,10.63
2023-05-08T01:52:14.988Z,9.68
2023-05-08T01:54:44.449Z,9.27
2023-05-08T01:57:13.041Z,9.13
2023-05-08T01:59:40.549Z,8.77
2023-05-08T02:02:08.241Z,10.93
2023-05-08T02:04:35.818Z,8.65
2023-05-08T02:07:03.624Z,12.83
2023-05-08T02:09:31.156Z,11.43
2023-05-08T02:11:58.897Z,11.05
2023-05-08T02:14:27.169Z,11.43
2023-05-08T02:16:54.808Z,11.00
2023-05-08T02:19:22.900Z,12.18
2023-05-08T02:21:50.538Z,10.97
2023-05-08T02:24:18.072Z,11.48
2023-05-08T02:26:45.940Z,9.77
2023-05-08T02:29:13.501Z,10.13
2023-05-08T02:31:41.190Z,11.07
2023-05-08T02:34:08.756Z,9.93
2023-05-08T02:36:36.724Z,9.43
2023-05-08T02:39:04.685Z,11.63
2023-05-08T02:41:32.833Z,10.15
2023-05-08T02:44:00.526Z,13.57
2023-05-08T02:46:36.550Z,10.13
2023-05-08T02:49:14.104Z,11.88
2023-05-08T02:51:47.923Z,11.10
2023-05-08T02:54:17.089Z,10.10
2023-05-08T02:57:09.886Z,9.57
2023-05-08T02:59:39.518Z,8.98
2023-05-08T03:02:13.923Z,11.15
2023-05-08T03:04:42.966Z,10.70
2023-05-08T03:07:11.374Z,7.95
2023-05-08T03:09:46.411Z,13.77
2023-05-08T03:12:16.262Z,10.33
2023-05-08T03:14:46.602Z,10.80
2023-05-08T03:17:14.916Z,11.75
2023-05-08T03:19:42.453Z,10.30
2023-05-08T03:22:10.069Z,10.17
2023-05-08T03:24:37.601Z,10.30
2023-05-08T03:27:06.467Z,10.55
2023-05-08T03:29:34.238Z,11.70
2023-05-08T03:32:02.350Z,9.93
2023-05-08T03:34:29.968Z,11.07
2023-05-08T03:36:57.681Z,11.27
2023-05-08T03:39:26.949Z,7.82
2023-05-08T03:41:55.936Z,9.80
2023-05-08T03:44:23.559Z,7.60
2023-05-08T03:46:51.678Z,4.87
2023-05-08T03:49:19.353Z,8.05
2023-05-08T03:51:46.894Z,8.80
2023-05-08T03:54:14.508Z,10.83
2023-05-08T03:56:42.072Z,9.63
2023-05-08T03:59:18.147Z,7.20
2023-05-08T04:01:49.805Z,9.60
2023-05-08T04:04:18.063Z,7.10
2023-05-08T04:06:50.409Z,6.18
2023-05-08T04:09:25.014Z,9.55
2023-05-08T04:11:58.955Z,8.27
2023-05-08T04:14:27.528Z,9.80
2023-05-08T04:16:56.941Z,9.15
2023-05-08T04:19:25.908Z,5.63
2023-05-08T04:21:55.905Z,11.80
2023-05-08T04:24:23.702Z,7.68
2023-05-08T04:26:51.434Z,8.87
2023-05-08T04:29:18.956Z,7.80
2023-05-08T04:31:46.600Z,8.27
2023-05-08T04:34:14.659Z,7.95
2023-05-08T04:36:42.253Z,9.67
2023-05-08T04:39:09.832Z,6.85
2023-05-08T04:41:37.445Z,6.75
2023-05-08T04:44:05.446Z,6.57
2023-05-08T04:46:33.047Z,8.38
2023-05-08T04:49:00.693Z,8.02
2023-05-08T04:51:28.401Z,8.63
2023-05-08T04:53:56.535Z,8.57
2023-05-08T04:56:24.139Z,9.23
2023-05-08T04:58:51.867Z,8.27
2023-05-08T05:01:19.448Z,8.80
2023-05-08T05:03:47.094Z,9.35
2023-05-08T05:06:14.724Z,10.07
2023-05-08T05:08:42.402Z,10.20
2023-05-08T05:11:09.943Z,9.85
2023-05-08T05:13:37.587Z,7.03
2023-05-08T05:16:05.655Z,7.87
2023-05-08T05:18:33.282Z,5.63
2023-05-08T05:21:00.838Z,6.80
2023-05-08T05:23:29.852Z,11.00
2023-05-08T05:25:57.669Z,8.50
2023-05-08T05:28:26.227Z,10.65
2023-05-08T05:30:53.962Z,11.25
2023-05-08T05:33:21.591Z,6.23
2023-05-08T05:35:49.180Z,11.75
2023-05-08T05:38:16.932Z,9.50
2023-05-08T05:40:44.520Z,8.70
2023-05-08T05:43:13.222Z,8.38
2023-05-08T05:45:41.346Z,8.43
2023-05-08T05:48:09.080Z,10.77
2023-05-08T05:50:38.046Z,5.57
2023-05-08T05:53:07.995Z,6.97
2023-05-08T05:55:35.666Z,5.90
2023-05-08T05:58:03.470Z,7.97
2023-05-08T06:00:31.482Z,6.93
2023-05-08T06:02:59.314Z,7.85
2023-05-08T06:05:27.135Z,8.73
2023-05-08T06:07:55.241Z,7.63
2023-05-08T06:10:22.876Z,9.65
2023-05-08T06:12:50.498Z,7.60
2023-05-08T06:15:18.545Z,8.97
2023-05-08T06:17:46.094Z,7.28
2023-05-08T06:20:13.737Z,9.23
2023-05-08T06:22:42.009Z,8.40
2023-05-08T06:25:10.172Z,7.68
2023-05-08T06:27:37.971Z,7.80
2023-05-08T06:30:08.760Z,9.57
2023-05-08T06:32:36.417Z,10.55
2023-05-08T06:35:04.192Z,7.80
2023-05-08T06:37:31.876Z,8.00
2023-05-08T06:40:11.044Z,8.80
2023-05-08T06:42:40.092Z,6.45
2023-05-08T06:45:08.182Z,7.93
2023-05-08T06:47:36.009Z,9.33
2023-05-08T06:50:03.655Z,9.85
2023-05-08T06:52:31.298Z,8.30
2023-05-08T06:54:58.941Z,9.10
2023-05-08T06:57:27.330Z,8.70
2023-05-08T06:59:54.933Z,7.53
2023-05-08T07:02:22.454Z,7.53
2023-05-08T07:04:50.084Z,9.77
2023-05-08T07:07:17.818Z,5.95
2023-05-08T07:09:45.632Z,7.85
2023-05-08T07:12:13.200Z,10.80
2023-05-08T07:14:40.801Z,9.68
2023-05-08T07:17:08.417Z,8.93
2023-05-08T07:19:38.977Z,9.03
2023-05-08T07:22:07.798Z,9.13
2023-05-08T07:24:35.444Z,9.68
2023-05-08T07:27:03.213Z,8.73
2023-05-08T07:29:30.885Z,10.93
2023-05-08T07:31:58.541Z,8.90
2023-05-08T07:34:26.049Z,9.30
2023-05-08T07:36:53.642Z,11.33
2023-05-08T07:39:21.222Z,10.32
2023-05-08T07:41:49.899Z,10.07
2023-05-08T07:44:17.678Z,9.90
2023-05-08T07:46:45.532Z,15.70
2023-05-08T07:49:13.083Z,10.48
2023-05-08T07:51:41.439Z,11.95
2023-05-08T07:54:09.029Z,9.90
2023-05-08T07:56:36.692Z,10.52
2023-05-08T07:59:06.560Z,9.77
2023-05-08T08:01:34.508Z,13.33
2023-05-08T08:04:02.250Z,9.88
2023-05-08T08:06:30.594Z,11.55
2023-05-08T08:08:58.272Z,11.00
2023-05-08T08:11:25.941Z,8.70
2023-05-08T08:13:53.534Z,9.13
2023-05-08T08:16:21.099Z,12.30
2023-05-08T08:18:48.806Z,11.83
2023-05-08T08:21:17.535Z,11.48
2023-05-08T08:23:45.088Z,12.05
2023-05-08T08:26:12.712Z,9.93
2023-05-08T08:28:40.268Z,10.25
2023-05-08T08:31:07.895Z,10.80
2023-05-08T08:33:35.475Z,10.97
2023-05-08T08:36:03.820Z,10.38
2023-05-08T08:38:31.409Z,9.65
2023-05-08T08:40:59.676Z,9.50
2023-05-08T08:43:28.930Z,9.90
2023-05-08T08:45:56.811Z,11.57
2023-05-08T08:48:24.498Z,10.68
2023-05-08T08:50:52.252Z,11.43
2023-05-08T08:53:25.426Z,10.77
2023-05-08T08:55:53.918Z,10.80
2023-05-08T08:58:21.765Z,11.48
2023-05-08T09:00:49.590Z,10.20
2023-05-08T09:03:17.424Z,9.75
2023-05-08T09:05:45.585Z,8.90
2023-05-08T09:08:13.258Z,10.20
2023-05-08T09:10:41.197Z,10.35
2023-05-08T09:13:08.904Z,15.52
2023-05-08T09:15:36.538Z,10.20
2023-05-08T09:18:06.796Z,9.82
2023-05-08T09:20:34.443Z,11.32
2023-05-08T09:23:05.091Z,11.75
2023-05-08T09:25:42.187Z,9.38
2023-05-08T09:28:19.498Z,10.63
2023-05-08T09:30:51.555Z,10.38
2023-05-08T09:33:19.244Z,10.43
2023-05-08T09:35:48.630Z,14.52
2023-05-08T09:38:35.376Z,11.25
2023-05-08T09:41:09.386Z,15.23
2023-05-08T09:43:37.048Z,11.63
2023-05-08T09:46:22.927Z,11.88
2023-05-08T09:48:51.092Z,12.70
2023-05-08T09:51:18.882Z,11.45
2023-05-08T09:53:46.570Z,11.43
2023-05-08T09:56:14.293Z,11.85
2023-05-08T09:58:42.427Z,13.50
2023-05-08T10:01:11.412Z,14.05
2023-05-08T10:03:49.007Z,10.73
2023-05-08T10:06:16.846Z,11.83
2023-05-08T10:08:44.555Z,11.43
2023-05-08T10:11:18.353Z,12.25
2023-05-08T10:13:46.310Z,11.20
2023-05-08T10:16:17.330Z,11.05
2023-05-08T10:18:49.043Z,12.07
2023-05-08T10:21:16.932Z,12.98
2023-05-08T10:23:45.030Z,12.07
2023-05-08T10:26:17.636Z,15.20
2023-05-08T10:28:48.201Z,14.35
2023-05-08T10:31:16.249Z,13.03
2023-05-08T10:33:44.058Z,12.30
2023-05-08T10:36:13.350Z,13.70
2023-05-08T10:38:41.121Z,11.77
2023-05-08T10:41:08.688Z,15.25
2023-05-08T10:43:36.253Z,12.60
2023-05-08T10:46:06.554Z,12.93
2023-05-08T10:48:37.636Z,13.07
2023-05-08T10:51:11.497Z,13.00
2023-05-08T10:53:46.692Z,12.20
2023-05-08T10:56:14.255Z,13.77
2023-05-08T10:58:41.993Z,13.45
2023-05-08T11:01:09.635Z,14.57
2023-05-08T11:03:42.003Z,12.40
2023-05-08T11:06:09.833Z,15.23
2023-05-08T11:08:54.754Z,15.68
2023-05-08T11:11:29.554Z,15.57
2023-05-08T11:13:57.280Z,13.10
2023-05-08T11:16:43.503Z,15.07
2023-05-08T11:19:17.601Z,11.98
2023-05-08T11:22:05.401Z,12.93
2023-05-08T11:24:38.979Z,15.93
2023-05-08T11:27:06.718Z,15.05
2023-05-08T11:29:34.226Z,16.90
2023-05-08T11:32:01.938Z,14.23
2023-05-08T11:34:45.170Z,14.73
2023-05-08T11:37:13.233Z,13.60
2023-05-08T11:39:40.822Z,15.50
2023-05-08T11:42:29.498Z,13.07
2023-05-08T11:45:10.007Z,13.73
2023-05-08T11:47:38.834Z,13.87
2023-05-08T11:50:06.991Z,16.10
2023-05-08T11:52:38.354Z,13.10
2023-05-08T11:55:09.506Z,14.52
2023-05-08T11:57:37.137Z,12.73
2023-05-08T12:00:07.913Z,15.07
2023-05-08T12:02:38.391Z,15.05
2023-05-08T12:05:06.808Z,14.43
2023-05-08T12:07:35.723Z,15.77
2023-05-08T12:10:03.745Z,15.90
2023-05-08T12:12:38.004Z,15.83
2023-05-08T12:15:09.219Z,15.50
2023-05-08T12:17:38.126Z,12.70
2023-05-08T12:20:15.210Z,15.82
2023-05-08T12:22:43.422Z,14.85
2023-05-08T12:25:12.312Z,16.98
2023-05-08T12:27:41.381Z,18.20
2023-05-08T12:30:09.746Z,14.97
2023-05-08T12:32:37.542Z,15.55
2023-05-08T12:35:05.501Z,14.80
2023-05-08T12:37:33.143Z,15.93
2023-05-08T12:40:00.953Z,17.50
2023-05-08T12:42:44.671Z,22.23
2023-05-08T12:45:25.506Z,15.63
2023-05-08T12:47:53.612Z,16.08
2023-05-08T12:50:21.905Z,15.18
2023-05-08T12:52:51.802Z,17.42
2023-05-08T12:55:38.141Z,17.33
2023-05-08T12:58:14.281Z,17.33
2023-05-08T13:00:43.693Z,20.30
2023-05-08T13:03:12.028Z,15.80
2023-05-08T13:05:43.156Z,15.52
2023-05-08T13:08:11.056Z,16.77
2023-05-08T13:10:47.427Z,18.85
2023-05-08T13:13:15.544Z,16.30
2023-05-08T13:15:43.367Z,16.45
2023-05-08T13:18:11.318Z,16.63
2023-05-08T13:20:38.979Z,18.07
2023-05-08T13:23:06.582Z,18.52
2023-05-08T13:25:34.254Z,17.33
2023-05-08T13:28:01.957Z,18.73
2023-05-08T13:30:29.642Z,18.92
2023-05-08T13:32:57.350Z,17.42
2023-05-08T13:35:25.162Z,18.35
2023-05-08T13:37:52.804Z,18.33
2023-05-08T13:40:20.554Z,18.40
2023-05-08T13:42:48.261Z,18.02
2023-05-08T13:45:16.038Z,17.87
2023-05-08T13:47:43.925Z,17.33
2023-05-08T13:50:11.735Z,17.75
2023-05-08T13:52:39.597Z,21.53
2023-05-08T13:55:07.753Z,18.48
2023-05-08T13:57:36.343Z,17.23
2023-05-08T14:00:04.744Z,24.65
2023-05-08T14:02:32.443Z,17.13
2023-05-08T14:05:00.042Z,17.77
2023-05-08T14:07:28.289Z,18.75
2023-05-08T14:09:55.917Z,17.57
2023-05-08T14:12:23.568Z,19.35
2023-05-08T14:14:53.576Z,17.20
2023-05-08T14:17:21.210Z,18.93
2023-05-08T14:19:48.788Z,21.17
2023-05-08T14:22:16.340Z,19.70
2023-05-08T14:24:44.433Z,19.13
2023-05-08T14:27:12.170Z,16.05
2023-05-08T14:29:39.848Z,18.70
2023-05-08T14:32:09.413Z,17.88
2023-05-08T14:34:37.100Z,21.80
2023-05-08T14:37:04.794Z,17.55
2023-05-08T14:39:32.404Z,18.33
2023-05-08T14:42:21.322Z,18.37
2023-05-08T14:44:52.568Z,16.80
2023-05-08T14:47:20.249Z,18.60
2023-05-08T14:49:47.799Z,20.58
2023-05-08T14:52:15.910Z,17.88
2023-05-08T14:54:43.695Z,21.50
2023-05-08T14:57:11.555Z,23.02
2023-05-08T14:59:46.150Z,18.60
2023-05-08T15:02:26.678Z,18.55
2023-05-08T15:04:54.251Z,19.52
2023-05-08T15:07:21.826Z,20.37
2023-05-08T15:09:49.425Z,15.88
2023-05-08T15:12:17.028Z,18.60
2023-05-08T15:14:44.605Z,17.00
2023-05-08T15:17:12.208Z,19.75
2023-05-08T15:19:39.853Z,16.52
2023-05-08T15:22:07.352Z,17.08
2023-05-08T15:24:34.931Z,18.57
2023-05-08T15:27:02.564Z,17.67
2023-05-08T15:29:30.161Z,19.23
2023-05-08T15:31:57.720Z,16.60
2023-05-08T15:34:29.012Z,18.63
2023-05-08T15:36:56.975Z,18.35
2023-05-08T15:39:24.547Z,19.90
2023-05-08T15:41:52.135Z,17.92
2023-05-08T15:44:19.846Z,18.52
2023-05-08T15:46:50.501Z,17.42
2023-05-08T15:49:18.057Z,16.33
2023-05-08T15:51:45.586Z,21.08
2023-05-08T15:54:13.138Z,16.30
2023-05-08T15:56:40.696Z,17.00
2023-05-08T15:59:08.379Z,19.52
2023-05-08T16:01:36.100Z,20.63
2023-05-08T16:04:03.688Z,19.45
2023-05-08T16:06:31.228Z,21.23
2023-05-08T16:09:00.037Z,22.35
2023-05-08T16:11:37.012Z,20.75
2023-05-08T16:14:04.714Z,21.10
2023-05-08T16:16:32.263Z,19.92
2023-05-08T16:18:59.916Z,18.98
2023-05-08T16:21:27.773Z,19.03
2023-05-08T16:23:56.121Z,18.52
2023-05-08T16:26:23.884Z,20.25
2023-05-08T16:28:51.654Z,23.48
2023-05-08T16:31:19.256Z,24.80
2023-05-08T16:33:46.811Z,29.38
2023-05-08T16:36:14.380Z,26.58
2023-05-08T16:38:41.912Z,29.17
2023-05-08T16:41:10.285Z,28.15
2023-05-08T16:43:37.818Z,28.10
2023-05-08T16:46:08.356Z,31.13
2023-05-08T16:48:36.247Z,31.67
2023-05-08T16:51:03.898Z,31.08
2023-05-08T16:53:32.638Z,30.85
2023-05-08T16:56:00.413Z,27.58
2023-05-08T16:58:28.144Z,32.58
2023-05-08T17:00:55.750Z,31.17
2023-05-08T17:03:23.451Z,29.13
2023-05-08T17:05:51.411Z,11.00
2023-05-08T17:08:19.079Z,7.07
2023-05-08T17:10:46.700Z,13.40
2023-05-08T17:13:15.027Z,18.75
2023-05-08T17:15:42.601Z,19.08
2023-05-08T17:18:10.438Z,35.58
2023-05-08T17:20:41.001Z,22.30
2023-05-08T17:23:12.847Z,18.92
2023-05-08T17:25:40.517Z,24.85
2023-05-08T17:28:08.270Z,20.27
2023-05-08T17:30:35.974Z,23.77
2023-05-08T17:33:03.863Z,21.90
2023-05-08T17:35:31.605Z,19.07
2023-05-08T17:37:59.256Z,20.35
2023-05-08T17:40:28.877Z,22.30
2023-05-08T17:42:56.572Z,24.23
2023-05-08T17:45:24.191Z,22.60
2023-05-08T17:47:51.866Z,23.20
2023-05-08T17:50:19.560Z,25.00
2023-05-08T17:52:47.214Z,23.97
2023-05-08T17:55:14.820Z,23.27
2023-05-08T17:57:42.425Z,23.60
2023-05-08T18:00:11.586Z,22.23
2023-05-08T18:02:39.412Z,24.23
2023-05-08T18:05:07.647Z,22.73
2023-05-08T18:07:38.071Z,20.63
2023-05-08T18:10:08.311Z,18.67
2023-05-08T18:12:36.008Z,21.27
2023-05-08T18:15:07.666Z,22.40
2023-05-08T18:17:35.450Z,19.83
2023-05-08T18:20:04.534Z,19.52
2023-05-08T18:22:33.263Z,20.02
2023-05-08T18:25:01.395Z,20.13
2023-05-08T18:27:29.364Z,17.20
2023-05-08T18:29:59.362Z,17.48
2023-05-08T18:32:26.983Z,20.37
2023-05-08T18:34:54.730Z,21.42
2023-05-08T18:37:23.184Z,17.52
2023-05-08T18:39:51.036Z,20.02
2023-05-08T18:42:25.070Z,17.70
2023-05-08T18:44:52.802Z,16.23
2023-05-08T18:47:23.558Z,17.73
2023-05-08T18:49:52.578Z,18.37
2023-05-08T18:52:20.197Z,13.60
2023-05-08T18:54:47.724Z,11.48
2023-05-08T18:57:15.645Z,15.93
2023-05-08T18:59:43.288Z,19.05
2023-05-08T19:02:10.951Z,16.33
2023-05-08T19:04:38.550Z,15.68
2023-05-08T19:07:06.148Z,14.33
2023-05-08T19:09:34.172Z,14.90
2023-05-08T19:12:04.247Z,14.50
2023-05-08T19:14:31.965Z,15.67
2023-05-08T19:16:59.553Z,15.75
2023-05-08T19:19:27.747Z,12.18
2023-05-08T19:21:55.331Z,19.15
2023-05-08T19:24:25.068Z,15.77
2023-05-08T19:26:55.145Z,23.17
2023-05-08T19:29:22.797Z,19.50
2023-05-08T19:31:50.576Z,20.80
2023-05-08T19:34:18.231Z,22.05
2023-05-08T19:36:45.874Z,21.42
2023-05-08T19:39:17.744Z,25.80
2023-05-08T19:41:45.501Z,33.67
2023-05-08T19:44:13.185Z,27.55
2023-05-08T19:46:41.184Z,28.58
2023-05-08T19:49:08.884Z,27.35
2023-05-08T19:51:36.462Z,28.35
2023-05-08T19:54:04.140Z,29.17
2023-05-08T19:56:31.952Z,36.20
2023-05-08T19:58:59.625Z,41.00
2023-05-08T20:01:27.138Z,56.50
2023-05-08T20:03:54.891Z,48.30
2023-05-08T20:06:23.058Z,52.80
2023-05-08T20:08:50.792Z,54.55
2023-05-08T20:11:22.087Z,49.57
2023-05-08T20:13:49.709Z,47.45
2023-05-08T20:16:17.280Z,43.53
2023-05-08T20:18:46.329Z,35.13
2023-05-08T20:21:13.947Z,30.03
2023-05-08T20:23:41.663Z,25.20
2023-05-08T20:26:09.308Z,24.15
2023-05-08T20:28:37.172Z,19.27
2023-05-08T20:31:04.854Z,24.08
2023-05-08T20:33:32.468Z,30.85
2023-05-08T20:36:00.033Z,31.13
2023-05-08T20:38:31.565Z,28.52
2023-05-08T20:41:01.073Z,27.92
2023-05-08T20:43:28.955Z,27.88
2023-05-08T20:45:56.595Z,25.20
2023-05-08T20:48:24.340Z,40.58
2023-05-08T20:50:52.082Z,51.17
2023-05-08T20:53:19.695Z,53.17
2023-05-08T20:55:47.234Z,28.50
2023-05-08T20:58:14.852Z,27.13
2023-05-08T21:00:42.470Z,27.87
2023-05-08T21:03:10.141Z,23.30
2023-05-08T21:05:37.688Z,28.52
2023-05-08T21:08:06.339Z,40.63
2023-05-08T21:10:34.156Z,30.47
2023-05-08T21:13:01.834Z,42.28
2023-05-08T21:15:29.538Z,30.27
2023-05-08T21:17:57.483Z,24.77
2023-05-08T21:20:25.291Z,26.08
2023-05-08T21:22:52.840Z,24.02
2023-05-08T21:25:21.656Z,30.95
2023-05-08T21:27:49.323Z,31.45
2023-05-08T21:30:16.986Z,45.50
2023-05-08T21:32:44.854Z,48.90
2023-05-08T21:35:13.229Z,51.17
2023-05-08T21:37:41.030Z,53.83
2023-05-08T21:40:09.804Z,47.30
2023-05-08T21:42:37.391Z,50.17
2023-05-08T21:45:05.074Z,46.85
2023-05-08T21:47:32.877Z,55.05
2023-05-08T21:50:00.519Z,64.57
2023-05-08T21:52:28.116Z,66.93
2023-05-08T21:54:56.068Z,68.40
2023-05-08T21:57:23.814Z,68.45
2023-05-08T21:59:51.536Z,61.93
2023-05-08T22:02:20.138Z,70.70
2023-05-08T22:04:47.795Z,77.03
2023-05-08T22:07:15.593Z,55.70
2023-05-08T22:09:43.625Z,70.97
2023-05-08T22:12:13.778Z,56.95
2023-05-08T22:14:41.376Z,61.67
2023-05-08T22:17:09.011Z,61.20
2023-05-08T22:19:36.603Z,66.03
2023-05-08T22:22:04.159Z,91.38
2023-05-08T22:24:31.729Z,56.33
2023-05-08T22:26:59.380Z,100.63
2023-05-08T22:29:26.979Z,91.72
2023-05-08T22:31:54.649Z,79.87
2023-05-08T22:34:22.412Z,62.80
2023-05-08T22:36:50.248Z,71.13
2023-05-08T22:39:17.864Z,70.50
2023-05-08T22:41:45.519Z,84.47
2023-05-08T22:44:13.126Z,84.38
2023-05-08T22:46:41.672Z,107.03
2023-05-08T22:49:09.625Z,100.70
2023-05-08T22:51:37.265Z,122.88
2023-05-08T22:54:04.925Z,98.00
2023-05-08T22:56:32.573Z,97.83
2023-05-08T22:59:00.380Z,132.05
2023-05-08T23:01:28.030Z,122.00
2023-05-08T23:03:56.688Z,88.30
2023-05-08T23:06:24.355Z,163.30
2023-05-08T23:08:52.077Z,91.82
2023-05-08T23:11:19.640Z,76.13
2023-05-08T23:13:47.230Z,89.13
2023-05-08T23:16:14.830Z,89.45
2023-05-08T23:18:42.492Z,75.75
2023-05-08T23:21:10.126Z,69.37
2023-05-08T23:23:37.767Z,69.82
2023-05-08T23:26:05.918Z,94.47
2023-05-08T23:28:33.812Z,171.53
2023-05-08T23:31:01.868Z,109.90
2023-05-08T23:33:29.433Z,88.35
2023-05-08T23:35:57.304Z,100.65
2023-05-08T23:38:25.094Z,85.53
2023-05-08T23:40:52.683Z,93.80
2023-05-08T23:43:20.295Z,81.22
2023-05-08T23:45:47.887Z,79.60
2023-05-08T23:48:15.680Z,124.25
2023-05-08T23:50:43.280Z,107.50
2023-05-08T23:53:10.845Z,78.43
2023-05-08T23:55:38.391Z,89.38
2023-05-08T23:58:06.173Z,86.93
